East Orchard Mesa, Colorado
Current Conditions -  °F | °C
As of 2:53 AM on Thursday 23 Oct 2014 (Local Time) from KGJT Reporting Station
Clear Clear  
Wind Chill: 42°   Ceiling: Unl
Heat Index: 44°   Visibility: 10mi
Dew Point: 37°   Wind: 5mph
Humidity: 76%   Direction: 120°ESE
Pressure: 30.2"   Gusts: NA
Location:  39.0875°N, 108.348°W
Report Text: KGJT 230853Z AUTO 12004KT 10SM CLR 07/03 A3020 RMK AO2 SLP188 T00670028 53006
Loading
Personal Weather Stations






























Interactive Weather Map
Tropical Storm Tracking
New forecast layout! Learn more

10-Day Weather Forecast

Advertisements
Track Severe Weather on mobile